sensor_id;sensor_type;location;lat;lon;timestamp;temperature;humidity
30069;DHT22;16894;49.456;10.644;2023-05-16T00:02:39;9.70;99.90
30069;DHT22;16894;49.456;10.644;2023-05-16T00:05:24;9.70;99.90
30069;DHT22;16894;49.456;10.644;2023-05-16T00:08:09;9.70;99.90
30069;DHT22;16894;49.456;10.644;2023-05-16T00:10:53;9.60;99.90
30069;DHT22;16894;49.456;10.644;2023-05-16T00:13:37;9.60;99.90
30069;DHT22;16894;49.456;10.644;2023-05-16T00:16:21;9.60;99.90
30069;DHT22;16894;49.456;10.644;2023-05-16T00:19:08;9.60;99.90
30069;DHT22;16894;49.456;10.644;2023-05-16T00:21:53;9.60;99.90
30069;DHT22;16894;49.456;10.644;2023-05-16T00:24:37;9.60;99.90
30069;DHT22;16894;49.456;10.644;2023-05-16T00:27:22;9.60;99.90
30069;DHT22;16894;49.456;10.644;2023-05-16T00:30:06;9.70;99.90
30069;DHT22;16894;49.456;10.644;2023-05-16T00:32:53;9.70;99.90
30069;DHT22;16894;49.456;10.644;2023-05-16T00:35:37;9.70;99.90
30069;DHT22;16894;49.456;10.644;2023-05-16T00:38:21;9.70;99.90
30069;DHT22;16894;49.456;10.644;2023-05-16T00:41:05;9.60;99.90
30069;DHT22;16894;49.456;10.644;2023-05-16T00:43:49;9.60;99.90
30069;DHT22;16894;49.456;10.644;2023-05-16T00:46:34;9.60;99.90
30069;DHT22;16894;49.456;10.644;2023-05-16T00:49:18;9.60;99.90
30069;DHT22;16894;49.456;10.644;2023-05-16T00:52:04;9.70;99.90
30069;DHT22;16894;49.456;10.644;2023-05-16T00:54:50;9.70;99.90
30069;DHT22;16894;49.456;10.644;2023-05-16T00:57:36;9.80;99.90
30069;DHT22;16894;49.456;10.644;2023-05-16T01:00:21;9.80;99.90
30069;DHT22;16894;49.456;10.644;2023-05-16T01:03:05;9.80;99.90
30069;DHT22;16894;49.456;10.644;2023-05-16T01:05:50;9.80;99.90
30069;DHT22;16894;49.456;10.644;2023-05-16T01:08:34;9.90;99.90
30069;DHT22;16894;49.456;10.644;2023-05-16T01:20:48;10.10;99.90
30069;DHT22;16894;49.456;10.644;2023-05-16T01:26:30;10.20;99.90
30069;DHT22;16894;49.456;10.644;2023-05-16T01:29:15;10.30;99.90
30069;DHT22;16894;49.456;10.644;2023-05-16T01:32:00;10.20;99.90
30069;DHT22;16894;49.456;10.644;2023-05-16T01:34:44;10.20;99.90
30069;DHT22;16894;49.456;10.644;2023-05-16T01:37:35;10.20;99.90
30069;DHT22;16894;49.456;10.644;2023-05-16T01:40:37;10.30;99.90
30069;DHT22;16894;49.456;10.644;2023-05-16T01:43:42;10.30;99.90
30069;DHT22;16894;49.456;10.644;2023-05-16T01:46:32;10.30;99.90
30069;DHT22;16894;49.456;10.644;2023-05-16T01:52:49;10.30;99.90
30069;DHT22;16894;49.456;10.644;2023-05-16T01:55:46;10.20;99.90
30069;DHT22;16894;49.456;10.644;2023-05-16T01:58:32;10.20;99.90
30069;DHT22;16894;49.456;10.644;2023-05-16T02:01:17;10.20;99.90
30069;DHT22;16894;49.456;10.644;2023-05-16T02:04:01;10.20;99.90
30069;DHT22;16894;49.456;10.644;2023-05-16T02:06:46;10.20;99.90
30069;DHT22;16894;49.456;10.644;2023-05-16T02:09:30;10.10;99.90
30069;DHT22;16894;49.456;10.644;2023-05-16T02:12:15;10.20;99.90
30069;DHT22;16894;49.456;10.644;2023-05-16T02:14:59;10.20;99.90
30069;DHT22;16894;49.456;10.644;2023-05-16T02:17:43;10.10;99.90
30069;DHT22;16894;49.456;10.644;2023-05-16T02:20:27;10.00;99.90
30069;DHT22;16894;49.456;10.644;2023-05-16T02:23:11;9.90;99.90
30069;DHT22;16894;49.456;10.644;2023-05-16T02:25:55;9.80;99.90
30069;DHT22;16894;49.456;10.644;2023-05-16T02:28:39;9.80;99.90
30069;DHT22;16894;49.456;10.644;2023-05-16T02:31:31;9.70;99.90
30069;DHT22;16894;49.456;10.644;2023-05-16T02:34:15;9.60;99.90
30069;DHT22;16894;49.456;10.644;2023-05-16T02:36:59;9.50;99.90
30069;DHT22;16894;49.456;10.644;2023-05-16T02:39:43;9.50;99.90
30069;DHT22;16894;49.456;10.644;2023-05-16T02:42:27;9.50;99.90
30069;DHT22;16894;49.456;10.644;2023-05-16T02:45:12;9.40;99.90
30069;DHT22;16894;49.456;10.644;2023-05-16T02:47:57;9.40;99.90
30069;DHT22;16894;49.456;10.644;2023-05-16T02:50:41;9.40;99.90
30069;DHT22;16894;49.456;10.644;2023-05-16T02:53:25;9.40;99.90
30069;DHT22;16894;49.456;10.644;2023-05-16T02:56:09;9.40;99.90
30069;DHT22;16894;49.456;10.644;2023-05-16T02:58:54;9.30;99.90
30069;DHT22;16894;49.456;10.644;2023-05-16T03:01:39;9.10;99.90
30069;DHT22;16894;49.456;10.644;2023-05-16T03:04:23;9.00;99.90
30069;DHT22;16894;49.456;10.644;2023-05-16T03:07:07;9.00;99.90
30069;DHT22;16894;49.456;10.644;2023-05-16T03:09:51;9.00;99.90
30069;DHT22;16894;49.456;10.644;2023-05-16T03:12:35;9.00;99.90
30069;DHT22;16894;49.456;10.644;2023-05-16T03:15:19;8.90;99.90
30069;DHT22;16894;49.456;10.644;2023-05-16T03:18:03;8.80;99.90
30069;DHT22;16894;49.456;10.644;2023-05-16T03:20:48;8.80;99.90
30069;DHT22;16894;49.456;10.644;2023-05-16T03:23:32;8.90;99.90
30069;DHT22;16894;49.456;10.644;2023-05-16T03:26:16;8.90;99.90
30069;DHT22;16894;49.456;10.644;2023-05-16T03:29:00;8.90;99.90
30069;DHT22;16894;49.456;10.644;2023-05-16T03:31:44;8.90;99.90
30069;DHT22;16894;49.456;10.644;2023-05-16T03:34:29;8.90;99.90
30069;DHT22;16894;49.456;10.644;2023-05-16T03:37:13;9.00;99.90
30069;DHT22;16894;49.456;10.644;2023-05-16T03:40:00;9.00;99.90
30069;DHT22;16894;49.456;10.644;2023-05-16T03:42:44;9.00;99.90
30069;DHT22;16894;49.456;10.644;2023-05-16T03:45:29;9.00;99.90
30069;DHT22;16894;49.456;10.644;2023-05-16T03:48:14;9.10;99.90
30069;DHT22;16894;49.456;10.644;2023-05-16T03:50:58;9.20;99.90
30069;DHT22;16894;49.456;10.644;2023-05-16T03:53:42;9.30;99.90
30069;DHT22;16894;49.456;10.644;2023-05-16T03:56:26;9.20;99.90
30069;DHT22;16894;49.456;10.644;2023-05-16T03:59:10;9.10;99.90
30069;DHT22;16894;49.456;10.644;2023-05-16T04:01:54;9.20;99.90
30069;DHT22;16894;49.456;10.644;2023-05-16T04:04:38;9.20;99.90
30069;DHT22;16894;49.456;10.644;2023-05-16T04:07:22;9.20;99.90
30069;DHT22;16894;49.456;10.644;2023-05-16T04:10:07;9.30;99.90
30069;DHT22;16894;49.456;10.644;2023-05-16T04:12:52;9.20;99.90
30069;DHT22;16894;49.456;10.644;2023-05-16T04:15:37;9.20;99.90
30069;DHT22;16894;49.456;10.644;2023-05-16T04:18:22;9.30;99.90
30069;DHT22;16894;49.456;10.644;2023-05-16T04:21:06;9.20;99.90
30069;DHT22;16894;49.456;10.644;2023-05-16T04:23:50;9.10;99.90
30069;DHT22;16894;49.456;10.644;2023-05-16T04:26:35;9.00;99.90
30069;DHT22;16894;49.456;10.644;2023-05-16T04:29:20;9.00;99.90
30069;DHT22;16894;49.456;10.644;2023-05-16T04:32:05;9.00;99.90
30069;DHT22;16894;49.456;10.644;2023-05-16T04:34:50;9.00;99.90
30069;DHT22;16894;49.456;10.644;2023-05-16T04:37:37;9.10;99.90
30069;DHT22;16894;49.456;10.644;2023-05-16T04:40:21;9.20;99.90
30069;DHT22;16894;49.456;10.644;2023-05-16T04:43:07;9.30;99.90
30069;DHT22;16894;49.456;10.644;2023-05-16T04:45:51;9.50;99.90
30069;DHT22;16894;49.456;10.644;2023-05-16T04:48:36;9.60;99.90
30069;DHT22;16894;49.456;10.644;2023-05-16T04:51:20;9.70;99.90
30069;DHT22;16894;49.456;10.644;2023-05-16T04:54:05;9.60;99.90
30069;DHT22;16894;49.456;10.644;2023-05-16T04:56:49;9.60;99.90
30069;DHT22;16894;49.456;10.644;2023-05-16T04:59:33;9.60;99.90
30069;DHT22;16894;49.456;10.644;2023-05-16T05:02:18;9.70;99.90
30069;DHT22;16894;49.456;10.644;2023-05-16T05:05:02;9.70;99.90
30069;DHT22;16894;49.456;10.644;2023-05-16T05:07:46;9.70;99.90
30069;DHT22;16894;49.456;10.644;2023-05-16T05:10:31;9.70;99.90
30069;DHT22;16894;49.456;10.644;2023-05-16T05:13:16;9.70;99.90
30069;DHT22;16894;49.456;10.644;2023-05-16T05:16:00;9.80;99.90
30069;DHT22;16894;49.456;10.644;2023-05-16T05:18:47;9.90;99.90
30069;DHT22;16894;49.456;10.644;2023-05-16T05:21:31;9.90;99.90
30069;DHT22;16894;49.456;10.644;2023-05-16T05:24:15;10.00;99.90
30069;DHT22;16894;49.456;10.644;2023-05-16T05:26:59;10.00;99.90
30069;DHT22;16894;49.456;10.644;2023-05-16T05:29:43;10.10;99.90
30069;DHT22;16894;49.456;10.644;2023-05-16T05:32:27;10.10;99.90
30069;DHT22;16894;49.456;10.644;2023-05-16T05:35:12;10.10;99.90
30069;DHT22;16894;49.456;10.644;2023-05-16T05:37:56;10.20;99.90
30069;DHT22;16894;49.456;10.644;2023-05-16T05:40:40;10.20;99.90
30069;DHT22;16894;49.456;10.644;2023-05-16T05:43:25;10.30;99.90
30069;DHT22;16894;49.456;10.644;2023-05-16T05:46:09;10.50;99.90
30069;DHT22;16894;49.456;10.644;2023-05-16T05:48:53;10.60;99.90
30069;DHT22;16894;49.456;10.644;2023-05-16T05:51:37;10.80;99.90
30069;DHT22;16894;49.456;10.644;2023-05-16T05:54:22;10.90;99.90
30069;DHT22;16894;49.456;10.644;2023-05-16T05:57:07;11.00;99.90
30069;DHT22;16894;49.456;10.644;2023-05-16T05:59:51;11.20;99.90
30069;DHT22;16894;49.456;10.644;2023-05-16T06:02:35;11.30;99.90
30069;DHT22;16894;49.456;10.644;2023-05-16T06:05:20;11.30;99.90
30069;DHT22;16894;49.456;10.644;2023-05-16T06:08:05;11.40;99.90
30069;DHT22;16894;49.456;10.644;2023-05-16T06:10:49;11.50;99.90
30069;DHT22;16894;49.456;10.644;2023-05-16T06:13:33;11.60;99.90
30069;DHT22;16894;49.456;10.644;2023-05-16T06:16:17;11.70;99.90
30069;DHT22;16894;49.456;10.644;2023-05-16T06:19:02;11.90;99.90
30069;DHT22;16894;49.456;10.644;2023-05-16T06:21:47;12.00;99.90
30069;DHT22;16894;49.456;10.644;2023-05-16T06:24:31;12.00;99.90
30069;DHT22;16894;49.456;10.644;2023-05-16T06:27:15;12.20;99.90
30069;DHT22;16894;49.456;10.644;2023-05-16T06:29:59;12.10;99.90
30069;DHT22;16894;49.456;10.644;2023-05-16T06:32:44;12.10;99.90
30069;DHT22;16894;49.456;10.644;2023-05-16T06:35:28;12.20;99.90
30069;DHT22;16894;49.456;10.644;2023-05-16T06:38:12;12.30;99.90
30069;DHT22;16894;49.456;10.644;2023-05-16T06:40:56;12.20;99.90
30069;DHT22;16894;49.456;10.644;2023-05-16T06:43:40;12.40;99.90
30069;DHT22;16894;49.456;10.644;2023-05-16T06:46:26;12.50;99.90
30069;DHT22;16894;49.456;10.644;2023-05-16T06:49:10;12.60;99.90
30069;DHT22;16894;49.456;10.644;2023-05-16T06:51:54;12.60;99.90
30069;DHT22;16894;49.456;10.644;2023-05-16T06:54:39;12.50;99.90
30069;DHT22;16894;49.456;10.644;2023-05-16T06:57:23;12.60;99.90
30069;DHT22;16894;49.456;10.644;2023-05-16T07:00:07;12.60;99.90
30069;DHT22;16894;49.456;10.644;2023-05-16T07:02:51;12.80;99.90
30069;DHT22;16894;49.456;10.644;2023-05-16T07:05:36;12.80;99.90
30069;DHT22;16894;49.456;10.644;2023-05-16T07:08:20;12.80;99.90
30069;DHT22;16894;49.456;10.644;2023-05-16T07:11:04;12.90;99.90
30069;DHT22;16894;49.456;10.644;2023-05-16T07:13:48;13.00;99.90
30069;DHT22;16894;49.456;10.644;2023-05-16T07:16:32;12.90;99.90
30069;DHT22;16894;49.456;10.644;2023-05-16T07:19:16;13.00;99.90
30069;DHT22;16894;49.456;10.644;2023-05-16T07:22:00;13.10;99.90
30069;DHT22;16894;49.456;10.644;2023-05-16T07:24:45;13.30;99.90
30069;DHT22;16894;49.456;10.644;2023-05-16T07:27:29;13.40;99.90
30069;DHT22;16894;49.456;10.644;2023-05-16T07:30:15;13.60;99.90
30069;DHT22;16894;49.456;10.644;2023-05-16T07:32:59;13.70;99.90
30069;DHT22;16894;49.456;10.644;2023-05-16T07:35:44;13.70;99.90
30069;DHT22;16894;49.456;10.644;2023-05-16T07:38:28;13.80;99.90
30069;DHT22;16894;49.456;10.644;2023-05-16T07:41:12;13.80;99.90
30069;DHT22;16894;49.456;10.644;2023-05-16T07:43:56;13.80;99.90
30069;DHT22;16894;49.456;10.644;2023-05-16T07:46:41;14.00;99.90
30069;DHT22;16894;49.456;10.644;2023-05-16T07:49:27;14.30;99.90
30069;DHT22;16894;49.456;10.644;2023-05-16T07:52:11;14.60;99.90
30069;DHT22;16894;49.456;10.644;2023-05-16T07:54:55;15.00;99.90
30069;DHT22;16894;49.456;10.644;2023-05-16T07:57:41;15.00;99.90
30069;DHT22;16894;49.456;10.644;2023-05-16T08:00:26;15.20;99.90
30069;DHT22;16894;49.456;10.644;2023-05-16T08:03:10;15.40;99.90
30069;DHT22;16894;49.456;10.644;2023-05-16T08:05:54;15.50;99.90
30069;DHT22;16894;49.456;10.644;2023-05-16T08:08:39;15.30;99.90
30069;DHT22;16894;49.456;10.644;2023-05-16T08:11:23;15.20;99.90
30069;DHT22;16894;49.456;10.644;2023-05-16T08:14:08;14.80;99.90
30069;DHT22;16894;49.456;10.644;2023-05-16T08:16:52;14.70;99.90
30069;DHT22;16894;49.456;10.644;2023-05-16T08:19:36;14.70;99.90
30069;DHT22;16894;49.456;10.644;2023-05-16T08:22:21;14.70;99.90
30069;DHT22;16894;49.456;10.644;2023-05-16T08:25:05;14.60;99.90
30069;DHT22;16894;49.456;10.644;2023-05-16T08:27:49;14.70;99.90
30069;DHT22;16894;49.456;10.644;2023-05-16T08:30:34;14.80;99.90
30069;DHT22;16894;49.456;10.644;2023-05-16T08:33:18;14.60;99.90
30069;DHT22;16894;49.456;10.644;2023-05-16T08:36:03;14.50;99.90
30069;DHT22;16894;49.456;10.644;2023-05-16T08:38:49;14.30;99.90
30069;DHT22;16894;49.456;10.644;2023-05-16T08:41:34;14.10;99.90
30069;DHT22;16894;49.456;10.644;2023-05-16T08:44:18;14.00;99.90
30069;DHT22;16894;49.456;10.644;2023-05-16T08:47:25;13.80;99.90
30069;DHT22;16894;49.456;10.644;2023-05-16T08:50:10;13.60;99.90
30069;DHT22;16894;49.456;10.644;2023-05-16T08:52:55;13.70;99.90
30069;DHT22;16894;49.456;10.644;2023-05-16T08:55:40;13.50;99.90
30069;DHT22;16894;49.456;10.644;2023-05-16T08:58:25;13.20;99.90
30069;DHT22;16894;49.456;10.644;2023-05-16T09:01:11;13.20;99.90
30069;DHT22;16894;49.456;10.644;2023-05-16T09:03:55;13.10;99.90
30069;DHT22;16894;49.456;10.644;2023-05-16T09:06:40;13.00;99.90
30069;DHT22;16894;49.456;10.644;2023-05-16T09:09:24;12.90;99.90
30069;DHT22;16894;49.456;10.644;2023-05-16T09:12:08;12.80;99.90
30069;DHT22;16894;49.456;10.644;2023-05-16T09:14:52;12.80;99.90
30069;DHT22;16894;49.456;10.644;2023-05-16T09:17:45;12.70;99.90
30069;DHT22;16894;49.456;10.644;2023-05-16T09:20:29;12.80;99.90
30069;DHT22;16894;49.456;10.644;2023-05-16T09:23:14;12.80;99.90
30069;DHT22;16894;49.456;10.644;2023-05-16T09:25:59;12.80;99.90
30069;DHT22;16894;49.456;10.644;2023-05-16T09:28:43;12.70;99.90
30069;DHT22;16894;49.456;10.644;2023-05-16T09:31:28;12.70;99.90
30069;DHT22;16894;49.456;10.644;2023-05-16T09:34:21;12.80;99.90
30069;DHT22;16894;49.456;10.644;2023-05-16T09:37:06;13.00;99.90
30069;DHT22;16894;49.456;10.644;2023-05-16T09:39:53;13.10;99.90
30069;DHT22;16894;49.456;10.644;2023-05-16T09:42:44;13.20;99.90
30069;DHT22;16894;49.456;10.644;2023-05-16T09:45:30;13.20;99.90
30069;DHT22;16894;49.456;10.644;2023-05-16T09:48:15;13.40;99.90
30069;DHT22;16894;49.456;10.644;2023-05-16T09:51:00;13.50;99.90
30069;DHT22;16894;49.456;10.644;2023-05-16T09:53:48;13.50;99.90
30069;DHT22;16894;49.456;10.644;2023-05-16T09:56:33;13.50;99.90
30069;DHT22;16894;49.456;10.644;2023-05-16T09:59:17;13.70;99.90
30069;DHT22;16894;49.456;10.644;2023-05-16T10:02:01;13.90;99.90
30069;DHT22;16894;49.456;10.644;2023-05-16T10:04:47;14.00;99.90
30069;DHT22;16894;49.456;10.644;2023-05-16T10:07:31;14.10;99.90
30069;DHT22;16894;49.456;10.644;2023-05-16T10:10:17;14.10;99.90
30069;DHT22;16894;49.456;10.644;2023-05-16T10:13:03;14.10;99.90
30069;DHT22;16894;49.456;10.644;2023-05-16T10:15:49;14.00;99.90
30069;DHT22;16894;49.456;10.644;2023-05-16T10:18:34;14.10;99.90
30069;DHT22;16894;49.456;10.644;2023-05-16T10:21:21;14.10;99.90
30069;DHT22;16894;49.456;10.644;2023-05-16T10:24:09;14.00;99.90
30069;DHT22;16894;49.456;10.644;2023-05-16T10:26:54;14.00;99.90
30069;DHT22;16894;49.456;10.644;2023-05-16T10:29:39;14.00;99.90
30069;DHT22;16894;49.456;10.644;2023-05-16T10:32:25;14.20;99.90
30069;DHT22;16894;49.456;10.644;2023-05-16T10:35:10;14.20;99.90
30069;DHT22;16894;49.456;10.644;2023-05-16T10:37:54;14.30;99.90
30069;DHT22;16894;49.456;10.644;2023-05-16T10:40:39;14.30;99.90
30069;DHT22;16894;49.456;10.644;2023-05-16T10:43:25;14.40;99.90
30069;DHT22;16894;49.456;10.644;2023-05-16T10:46:10;14.60;99.90
30069;DHT22;16894;49.456;10.644;2023-05-16T10:48:54;14.60;99.90
30069;DHT22;16894;49.456;10.644;2023-05-16T10:51:39;14.60;99.90
30069;DHT22;16894;49.456;10.644;2023-05-16T10:54:42;14.70;99.90
30069;DHT22;16894;49.456;10.644;2023-05-16T10:57:26;14.80;99.90
30069;DHT22;16894;49.456;10.644;2023-05-16T11:00:21;14.80;99.90
30069;DHT22;16894;49.456;10.644;2023-05-16T11:03:05;15.00;99.90
30069;DHT22;16894;49.456;10.644;2023-05-16T11:06:03;15.20;99.90
30069;DHT22;16894;49.456;10.644;2023-05-16T11:12:00;15.40;99.90
30069;DHT22;16894;49.456;10.644;2023-05-16T11:14:50;15.60;99.90
30069;DHT22;16894;49.456;10.644;2023-05-16T11:17:38;15.80;99.90
30069;DHT22;16894;49.456;10.644;2023-05-16T11:20:25;16.10;99.90
30069;DHT22;16894;49.456;10.644;2023-05-16T11:26:02;16.80;99.90
30069;DHT22;16894;49.456;10.644;2023-05-16T11:28:48;17.30;99.90
30069;DHT22;16894;49.456;10.644;2023-05-16T11:31:34;17.70;99.90
30069;DHT22;16894;49.456;10.644;2023-05-16T11:34:18;17.90;98.90
30069;DHT22;16894;49.456;10.644;2023-05-16T11:37:03;17.90;97.70
30069;DHT22;16894;49.456;10.644;2023-05-16T11:39:48;18.10;97.70
30069;DHT22;16894;49.456;10.644;2023-05-16T11:42:35;19.00;98.10
30069;DHT22;16894;49.456;10.644;2023-05-16T11:45:21;20.20;95.50
30069;DHT22;16894;49.456;10.644;2023-05-16T11:48:08;20.50;93.00
30069;DHT22;16894;49.456;10.644;2023-05-16T11:50:52;20.70;93.00
30069;DHT22;16894;49.456;10.644;2023-05-16T11:53:37;20.60;91.80
30069;DHT22;16894;49.456;10.644;2023-05-16T11:56:21;20.50;90.60
30069;DHT22;16894;49.456;10.644;2023-05-16T11:59:06;19.50;91.90
30069;DHT22;16894;49.456;10.644;2023-05-16T12:01:51;19.20;93.00
30069;DHT22;16894;49.456;10.644;2023-05-16T12:04:35;19.10;92.20
30069;DHT22;16894;49.456;10.644;2023-05-16T12:07:27;18.90;93.20
30069;DHT22;16894;49.456;10.644;2023-05-16T12:10:15;18.40;94.00
30069;DHT22;16894;49.456;10.644;2023-05-16T12:13:00;17.70;94.80
30069;DHT22;16894;49.456;10.644;2023-05-16T12:15:45;16.80;97.00
30069;DHT22;16894;49.456;10.644;2023-05-16T12:18:29;16.20;98.80
30069;DHT22;16894;49.456;10.644;2023-05-16T12:21:13;15.60;99.90
30069;DHT22;16894;49.456;10.644;2023-05-16T12:23:57;15.30;99.90
30069;DHT22;16894;49.456;10.644;2023-05-16T12:26:42;15.10;99.90
30069;DHT22;16894;49.456;10.644;2023-05-16T12:29:27;14.90;99.90
30069;DHT22;16894;49.456;10.644;2023-05-16T12:32:19;14.70;99.90
30069;DHT22;16894;49.456;10.644;2023-05-16T12:35:03;14.70;99.90
30069;DHT22;16894;49.456;10.644;2023-05-16T12:37:49;14.60;99.90
30069;DHT22;16894;49.456;10.644;2023-05-16T12:40:36;14.50;99.90
30069;DHT22;16894;49.456;10.644;2023-05-16T12:43:22;14.50;99.90
30069;DHT22;16894;49.456;10.644;2023-05-16T12:46:09;14.60;99.90
30069;DHT22;16894;49.456;10.644;2023-05-16T12:49:03;14.70;99.90
30069;DHT22;16894;49.456;10.644;2023-05-16T12:51:51;14.80;99.90
30069;DHT22;16894;49.456;10.644;2023-05-16T12:54:36;14.80;99.90
30069;DHT22;16894;49.456;10.644;2023-05-16T12:57:20;15.00;99.90
30069;DHT22;16894;49.456;10.644;2023-05-16T13:00:05;15.20;99.90
30069;DHT22;16894;49.456;10.644;2023-05-16T13:02:50;15.40;99.90
30069;DHT22;16894;49.456;10.644;2023-05-16T13:05:34;15.90;99.90
30069;DHT22;16894;49.456;10.644;2023-05-16T13:08:19;16.50;99.90
30069;DHT22;16894;49.456;10.644;2023-05-16T13:11:03;17.20;99.70
30069;DHT22;16894;49.456;10.644;2023-05-16T13:13:47;17.90;98.40
30069;DHT22;16894;49.456;10.644;2023-05-16T13:16:32;18.10;97.40
30069;DHT22;16894;49.456;10.644;2023-05-16T13:19:16;17.90;97.70
30069;DHT22;16894;49.456;10.644;2023-05-16T13:22:00;18.60;96.10
30069;DHT22;16894;49.456;10.644;2023-05-16T13:24:45;19.40;96.00
30069;DHT22;16894;49.456;10.644;2023-05-16T13:27:29;19.50;94.20
30069;DHT22;16894;49.456;10.644;2023-05-16T13:30:14;18.90;95.00
30069;DHT22;16894;49.456;10.644;2023-05-16T13:32:58;17.50;95.80
30069;DHT22;16894;49.456;10.644;2023-05-16T13:35:43;16.90;96.80
30069;DHT22;16894;49.456;10.644;2023-05-16T13:38:27;16.30;97.80
30069;DHT22;16894;49.456;10.644;2023-05-16T13:41:12;15.90;98.30
30069;DHT22;16894;49.456;10.644;2023-05-16T13:43:57;15.60;99.20
30069;DHT22;16894;49.456;10.644;2023-05-16T13:46:41;15.50;99.60
30069;DHT22;16894;49.456;10.644;2023-05-16T13:49:25;15.50;99.90
30069;DHT22;16894;49.456;10.644;2023-05-16T13:52:10;15.40;99.90
30069;DHT22;16894;49.456;10.644;2023-05-16T13:54:54;15.60;99.90
30069;DHT22;16894;49.456;10.644;2023-05-16T13:57:38;15.50;99.90
30069;DHT22;16894;49.456;10.644;2023-05-16T14:00:22;15.70;99.60
30069;DHT22;16894;49.456;10.644;2023-05-16T14:03:07;15.30;99.90
30069;DHT22;16894;49.456;10.644;2023-05-16T14:05:52;15.20;99.90
30069;DHT22;16894;49.456;10.644;2023-05-16T14:08:36;15.30;99.90
30069;DHT22;16894;49.456;10.644;2023-05-16T14:11:20;15.30;99.90
30069;DHT22;16894;49.456;10.644;2023-05-16T14:14:09;15.70;99.90
30069;DHT22;16894;49.456;10.644;2023-05-16T14:16:53;15.80;99.80
30069;DHT22;16894;49.456;10.644;2023-05-16T14:19:37;15.70;98.70
30069;DHT22;16894;49.456;10.644;2023-05-16T14:22:22;15.70;99.30
30069;DHT22;16894;49.456;10.644;2023-05-16T14:25:06;15.50;99.00
30069;DHT22;16894;49.456;10.644;2023-05-16T14:27:51;15.30;99.20
30069;DHT22;16894;49.456;10.644;2023-05-16T14:30:35;15.20;99.40
30069;DHT22;16894;49.456;10.644;2023-05-16T14:33:20;15.30;99.60
30069;DHT22;16894;49.456;10.644;2023-05-16T14:36:05;15.20;99.30
30069;DHT22;16894;49.456;10.644;2023-05-16T14:38:50;14.90;99.90
30069;DHT22;16894;49.456;10.644;2023-05-16T14:41:34;14.70;99.90
30069;DHT22;16894;49.456;10.644;2023-05-16T14:44:19;14.50;99.90
30069;DHT22;16894;49.456;10.644;2023-05-16T14:47:04;14.30;99.90
30069;DHT22;16894;49.456;10.644;2023-05-16T14:49:49;14.20;99.90
30069;DHT22;16894;49.456;10.644;2023-05-16T14:52:38;14.20;99.90
30069;DHT22;16894;49.456;10.644;2023-05-16T14:55:22;14.20;99.90
30069;DHT22;16894;49.456;10.644;2023-05-16T14:58:07;14.00;99.90
30069;DHT22;16894;49.456;10.644;2023-05-16T15:00:51;13.90;99.90
30069;DHT22;16894;49.456;10.644;2023-05-16T15:03:36;13.70;99.90
30069;DHT22;16894;49.456;10.644;2023-05-16T15:06:20;13.70;99.90
30069;DHT22;16894;49.456;10.644;2023-05-16T15:09:04;13.70;99.90
30069;DHT22;16894;49.456;10.644;2023-05-16T15:11:48;13.80;99.90
30069;DHT22;16894;49.456;10.644;2023-05-16T15:14:33;13.70;99.90
30069;DHT22;16894;49.456;10.644;2023-05-16T15:17:16;13.80;99.90
30069;DHT22;16894;49.456;10.644;2023-05-16T15:20:01;13.80;99.90
30069;DHT22;16894;49.456;10.644;2023-05-16T15:22:46;13.90;99.90
30069;DHT22;16894;49.456;10.644;2023-05-16T15:25:30;13.70;99.90
30069;DHT22;16894;49.456;10.644;2023-05-16T15:28:14;13.50;99.90
30069;DHT22;16894;49.456;10.644;2023-05-16T15:30:59;13.50;99.90
30069;DHT22;16894;49.456;10.644;2023-05-16T15:33:43;13.50;99.90
30069;DHT22;16894;49.456;10.644;2023-05-16T15:36:28;13.40;99.90
30069;DHT22;16894;49.456;10.644;2023-05-16T15:39:12;13.30;99.90
30069;DHT22;16894;49.456;10.644;2023-05-16T15:41:56;13.20;99.90
30069;DHT22;16894;49.456;10.644;2023-05-16T15:44:40;13.10;99.90
30069;DHT22;16894;49.456;10.644;2023-05-16T15:47:25;13.10;99.90
30069;DHT22;16894;49.456;10.644;2023-05-16T15:50:09;13.10;99.90
30069;DHT22;16894;49.456;10.644;2023-05-16T15:52:54;13.10;99.90
30069;DHT22;16894;49.456;10.644;2023-05-16T15:55:41;13.10;99.90
30069;DHT22;16894;49.456;10.644;2023-05-16T15:58:25;13.10;99.90
30069;DHT22;16894;49.456;10.644;2023-05-16T16:01:09;13.10;99.90
30069;DHT22;16894;49.456;10.644;2023-05-16T16:03:53;13.10;99.90
30069;DHT22;16894;49.456;10.644;2023-05-16T16:06:37;13.20;99.90
30069;DHT22;16894;49.456;10.644;2023-05-16T16:09:22;13.30;99.90
30069;DHT22;16894;49.456;10.644;2023-05-16T16:12:06;13.40;99.90
30069;DHT22;16894;49.456;10.644;2023-05-16T16:14:50;13.40;99.90
30069;DHT22;16894;49.456;10.644;2023-05-16T16:17:35;13.30;99.90
30069;DHT22;16894;49.456;10.644;2023-05-16T16:20:19;13.30;99.90
30069;DHT22;16894;49.456;10.644;2023-05-16T16:23:03;13.30;99.90
30069;DHT22;16894;49.456;10.644;2023-05-16T16:25:48;13.40;99.90
30069;DHT22;16894;49.456;10.644;2023-05-16T16:28:32;13.50;99.90
30069;DHT22;16894;49.456;10.644;2023-05-16T16:31:16;13.60;99.90
30069;DHT22;16894;49.456;10.644;2023-05-16T16:34:00;13.60;99.60
30069;DHT22;16894;49.456;10.644;2023-05-16T16:36:44;13.60;99.30
30069;DHT22;16894;49.456;10.644;2023-05-16T16:39:29;13.50;99.90
30069;DHT22;16894;49.456;10.644;2023-05-16T16:42:13;13.40;99.90
30069;DHT22;16894;49.456;10.644;2023-05-16T16:44:57;13.40;99.30
30069;DHT22;16894;49.456;10.644;2023-05-16T16:47:41;13.40;99.90
30069;DHT22;16894;49.456;10.644;2023-05-16T16:50:25;13.40;99.80
30069;DHT22;16894;49.456;10.644;2023-05-16T16:53:10;13.30;99.70
30069;DHT22;16894;49.456;10.644;2023-05-16T16:55:54;13.20;99.80
30069;DHT22;16894;49.456;10.644;2023-05-16T16:58:39;13.10;99.70
30069;DHT22;16894;49.456;10.644;2023-05-16T17:01:23;13.10;99.70
30069;DHT22;16894;49.456;10.644;2023-05-16T17:04:08;13.00;99.90
30069;DHT22;16894;49.456;10.644;2023-05-16T17:06:52;13.00;99.90
30069;DHT22;16894;49.456;10.644;2023-05-16T17:09:36;13.00;99.90
30069;DHT22;16894;49.456;10.644;2023-05-16T17:12:24;13.00;99.90
30069;DHT22;16894;49.456;10.644;2023-05-16T17:15:11;12.90;99.90
30069;DHT22;16894;49.456;10.644;2023-05-16T17:17:56;12.90;99.90
30069;DHT22;16894;49.456;10.644;2023-05-16T17:20:39;12.80;99.90
30069;DHT22;16894;49.456;10.644;2023-05-16T17:23:24;12.90;99.90
30069;DHT22;16894;49.456;10.644;2023-05-16T17:26:08;12.80;99.90
30069;DHT22;16894;49.456;10.644;2023-05-16T17:28:53;12.70;99.90
30069;DHT22;16894;49.456;10.644;2023-05-16T17:31:38;12.70;99.90
30069;DHT22;16894;49.456;10.644;2023-05-16T17:34:22;12.60;99.90